createdAt,value
2023-03-03T00:03:35.349Z,0.20
2023-03-03T00:08:41.536Z,0.20
2023-03-03T00:13:50.606Z,0.30
2023-03-03T00:18:55.377Z,0.30
2023-03-03T00:24:19.470Z,0.40
2023-03-03T00:29:32.161Z,0.40
2023-03-03T00:34:37.990Z,0.50
2023-03-03T00:39:42.760Z,0.50
2023-03-03T00:44:47.528Z,0.60
2023-03-03T00:49:51.844Z,0.60
2023-03-03T00:54:57.642Z,0.60
2023-03-03T01:00:01.446Z,0.60
2023-03-03T01:05:07.561Z,0.60
2023-03-03T01:10:13.541Z,0.50
2023-03-03T01:15:22.229Z,0.50
2023-03-03T01:20:25.613Z,0.50
2023-03-03T01:25:30.638Z,0.40
2023-03-03T01:30:34.008Z,0.40
2023-03-03T01:35:37.699Z,0.30
2023-03-03T01:40:42.852Z,0.40
2023-03-03T01:46:36.927Z,0.30
2023-03-03T01:51:46.532Z,0.30
2023-03-03T01:56:54.388Z,0.10
2023-03-03T02:01:57.918Z,-0.10
2023-03-03T02:07:07.057Z,-0.30
2023-03-03T02:12:18.330Z,-0.50
2023-03-03T02:17:21.699Z,-0.70
2023-03-03T02:22:32.628Z,-0.80
2023-03-03T02:27:38.537Z,-0.80
2023-03-03T02:32:41.915Z,-0.80
2023-03-03T02:37:45.302Z,-0.80
2023-03-03T02:42:51.745Z,-0.80
2023-03-03T02:47:54.999Z,-0.70
2023-03-03T02:52:58.276Z,-0.60
2023-03-03T02:58:03.009Z,-0.50
2023-03-03T03:03:06.373Z,-0.40
2023-03-03T03:08:09.634Z,-0.30
2023-03-03T03:13:14.409Z,-0.20
2023-03-03T03:18:17.930Z,-0.20
2023-03-03T03:23:22.049Z,-0.10
2023-03-03T03:28:26.791Z,-0.10
2023-03-03T03:33:30.113Z,0.00
2023-03-03T03:38:36.765Z,0.00
2023-03-03T03:43:41.611Z,0.10
2023-03-03T03:48:45.673Z,0.20
2023-03-03T03:53:49.004Z,0.20
2023-03-03T03:58:53.743Z,0.20
2023-03-03T04:03:57.085Z,0.20
2023-03-03T04:09:00.502Z,0.20
2023-03-03T04:14:06.455Z,0.20
2023-03-03T04:19:09.720Z,0.20
2023-03-03T04:24:13.140Z,0.30
2023-03-03T04:29:17.919Z,0.30
2023-03-03T04:34:21.250Z,0.30
2023-03-03T04:39:24.662Z,0.40
2023-03-03T04:44:29.306Z,0.40
2023-03-03T04:49:33.598Z,0.30
2023-03-03T04:54:36.908Z,0.40
2023-03-03T04:59:41.795Z,0.30
2023-03-03T05:04:45.315Z,0.30
2023-03-03T05:09:48.611Z,0.30
2023-03-03T05:14:53.253Z,0.30
2023-03-03T05:19:57.502Z,0.30
2023-03-03T05:25:00.766Z,0.40
2023-03-03T05:30:08.670Z,0.40
2023-03-03T05:35:13.134Z,0.40
2023-03-03T05:40:16.719Z,0.40
2023-03-03T05:45:23.165Z,0.40
2023-03-03T05:50:27.421Z,0.40
2023-03-03T05:55:30.756Z,0.40
2023-03-03T06:00:35.668Z,0.30
2023-03-03T06:05:38.972Z,0.40
2023-03-03T06:10:42.455Z,0.40
2023-03-03T06:15:47.300Z,0.40
2023-03-03T06:20:54.035Z,0.40
2023-03-03T06:25:57.440Z,0.50
2023-03-03T06:31:02.167Z,0.50
2023-03-03T06:36:06.386Z,0.60
2023-03-03T06:41:09.768Z,0.70
2023-03-03T06:46:23.242Z,0.70
2023-03-03T06:51:32.380Z,0.80
2023-03-03T06:56:50.660Z,0.90
2023-03-03T07:01:55.547Z,1.10
2023-03-03T07:07:00.332Z,1.20
2023-03-03T07:12:08.341Z,1.20
2023-03-03T07:17:17.378Z,1.30
2023-03-03T07:22:24.830Z,1.40
2023-03-03T07:27:30.290Z,1.50
2023-03-03T07:32:43.173Z,1.60
2023-03-03T07:37:46.696Z,1.70
2023-03-03T07:42:50.845Z,1.80
2023-03-03T07:48:09.511Z,2.00
2023-03-03T07:53:28.040Z,2.10
2023-03-03T07:58:38.840Z,2.30
2023-03-03T08:03:51.286Z,2.50
2023-03-03T08:08:54.554Z,2.70
2023-03-03T08:13:58.193Z,2.80
2023-03-03T08:19:04.676Z,3.20
2023-03-03T08:24:13.836Z,3.30
2023-03-03T08:29:17.097Z,3.50
2023-03-03T08:34:22.772Z,3.60
2023-03-03T08:39:26.176Z,3.90
2023-03-03T08:44:29.522Z,4.00
2023-03-03T08:49:35.105Z,4.30
2023-03-03T08:54:38.677Z,4.70
2023-03-03T08:59:43.623Z,4.80
2023-03-03T09:04:48.424Z,5.20
2023-03-03T09:09:53.059Z,5.30
2023-03-03T09:14:59.695Z,5.60
2023-03-03T09:20:24.209Z,6.00
2023-03-03T09:25:37.145Z,6.70
2023-03-03T09:30:44.312Z,7.20
2023-03-03T09:35:54.802Z,7.40
2023-03-03T09:41:31.655Z,7.70
2023-03-03T09:46:46.925Z,7.40
2023-03-03T09:52:08.617Z,7.00
2023-03-03T09:57:20.591Z,7.10
2023-03-03T10:02:44.327Z,7.60
2023-03-03T10:08:01.945Z,8.00
2023-03-03T10:13:18.824Z,7.80
2023-03-03T10:18:33.868Z,7.50
2023-03-03T10:23:53.158Z,7.70
2023-03-03T10:29:26.652Z,7.60
2023-03-03T10:34:54.584Z,7.90
2023-03-03T10:40:16.418Z,8.00
2023-03-03T10:45:46.784Z,8.30
2023-03-03T10:50:58.054Z,8.50
2023-03-03T10:56:26.518Z,8.50
2023-03-03T11:01:47.145Z,8.80
2023-03-03T11:06:59.909Z,8.80
2023-03-03T11:12:21.482Z,9.00
2023-03-03T11:17:37.319Z,9.40
2023-03-03T11:22:50.336Z,8.80
2023-03-03T11:28:24.782Z,9.00
2023-03-03T11:33:37.673Z,9.10
2023-03-03T11:38:50.071Z,9.40
2023-03-03T11:44:01.804Z,9.00
2023-03-03T11:49:09.428Z,8.80
2023-03-03T11:54:20.935Z,9.30
2023-03-03T11:59:55.674Z,9.50
2023-03-03T12:05:06.067Z,9.60
2023-03-03T12:10:19.207Z,9.50
2023-03-03T12:15:34.590Z,9.40
2023-03-03T12:20:47.576Z,9.50
2023-03-03T12:25:58.563Z,9.40
2023-03-03T12:31:22.871Z,9.80
2023-03-03T12:36:53.064Z,9.90
2023-03-03T12:42:07.047Z,10.20
2023-03-03T12:47:23.240Z,10.20
2023-03-03T12:52:34.562Z,10.20
2023-03-03T12:57:46.807Z,10.50
2023-03-03T13:03:03.378Z,10.00
2023-03-03T13:08:34.699Z,9.80
2023-03-03T13:13:45.627Z,10.00
2023-03-03T13:19:00.721Z,9.80
2023-03-03T13:24:12.304Z,9.50
2023-03-03T13:29:22.299Z,9.50
2023-03-03T13:34:38.651Z,10.10
2023-03-03T13:39:54.830Z,10.10
2023-03-03T13:44:58.967Z,10.20
2023-03-03T13:50:11.604Z,10.50
2023-03-03T13:55:28.397Z,10.10
2023-03-03T14:00:45.605Z,10.30
2023-03-03T14:05:51.604Z,10.20
2023-03-03T14:11:09.480Z,10.30
2023-03-03T14:16:20.103Z,10.00
2023-03-03T14:21:31.031Z,9.80
2023-03-03T14:26:47.765Z,9.30
2023-03-03T14:31:52.136Z,9.70
2023-03-03T14:37:13.083Z,9.50
2023-03-03T14:42:32.415Z,9.30
2023-03-03T14:47:40.508Z,9.30
2023-03-03T14:52:45.236Z,8.90
2023-03-03T14:57:48.850Z,8.90
2023-03-03T15:03:04.734Z,8.80
2023-03-03T15:08:20.766Z,8.80
2023-03-03T15:13:34.087Z,8.70
2023-03-03T15:18:57.498Z,8.60
2023-03-03T15:24:06.759Z,8.70
2023-03-03T15:29:22.465Z,8.90
2023-03-03T15:34:34.830Z,8.90
2023-03-03T15:39:49.113Z,8.80
2023-03-03T15:45:01.244Z,8.60
2023-03-03T15:50:27.176Z,8.40
2023-03-03T15:55:59.611Z,8.30
2023-03-03T16:01:11.455Z,8.30
2023-03-03T16:06:20.202Z,8.20
2023-03-03T16:11:33.005Z,7.90
2023-03-03T16:16:44.669Z,7.60
2023-03-03T16:22:18.673Z,7.40
2023-03-03T16:27:31.533Z,7.30
2023-03-03T16:32:41.684Z,7.10
2023-03-03T16:37:59.775Z,6.90
2023-03-03T16:43:14.085Z,6.70
2023-03-03T16:48:38.186Z,6.60
2023-03-03T16:53:55.328Z,6.40
2023-03-03T16:59:30.618Z,6.20
2023-03-03T17:04:41.289Z,5.80
2023-03-03T17:10:04.570Z,5.30
2023-03-03T17:15:30.169Z,4.70
2023-03-03T17:20:41.110Z,4.10
2023-03-03T17:25:55.201Z,3.60
2023-03-03T17:31:07.512Z,3.20
2023-03-03T17:36:29.574Z,2.90
2023-03-03T17:41:42.893Z,2.70
2023-03-03T17:46:51.773Z,2.60
2023-03-03T17:52:28.653Z,2.50
2023-03-03T17:57:48.232Z,2.50
2023-03-03T18:03:34.163Z,2.50
2023-03-03T18:08:50.522Z,2.40
2023-03-03T18:14:28.554Z,2.30
2023-03-03T18:20:01.372Z,2.40
2023-03-03T18:25:12.063Z,2.60
2023-03-03T18:30:35.384Z,2.70
2023-03-03T18:35:40.940Z,2.70
2023-03-03T18:40:55.218Z,2.60
2023-03-03T18:45:58.633Z,2.50
2023-03-03T18:51:23.740Z,2.40
2023-03-03T18:56:45.366Z,2.30
2023-03-03T19:01:51.904Z,2.10
2023-03-03T19:07:26.607Z,2.00
2023-03-03T19:12:51.890Z,1.70
2023-03-03T19:17:57.384Z,1.60
2023-03-03T19:23:06.110Z,1.30
2023-03-03T19:28:38.011Z,1.20
2023-03-03T19:33:50.937Z,1.10
2023-03-03T19:39:15.852Z,0.80
2023-03-03T19:44:49.945Z,0.60
2023-03-03T19:50:06.746Z,0.40
2023-03-03T19:55:35.954Z,0.30
2023-03-03T20:00:44.061Z,0.20
2023-03-03T20:05:53.503Z,0.10
2023-03-03T20:11:01.547Z,0.10
2023-03-03T20:16:21.947Z,0.00
2023-03-03T20:21:33.526Z,0.00
2023-03-03T20:26:46.153Z,0.10
2023-03-03T20:32:00.336Z,0.10
2023-03-03T20:37:10.269Z,0.20
2023-03-03T20:42:27.480Z,0.20
2023-03-03T20:47:45.068Z,0.20
2023-03-03T20:53:07.848Z,0.30
2023-03-03T20:58:28.095Z,0.10
2023-03-03T21:03:45.195Z,0.00
2023-03-03T21:08:59.568Z,-0.10
2023-03-03T21:14:17.835Z,-0.10
2023-03-03T21:19:29.807Z,-0.10
2023-03-03T21:24:57.354Z,-0.20
2023-03-03T21:30:16.386Z,-0.30
2023-03-03T21:35:26.091Z,-0.50
2023-03-03T21:41:14.065Z,-0.60
2023-03-03T21:46:28.389Z,-0.70
2023-03-03T21:51:39.585Z,-0.90
2023-03-03T21:56:44.871Z,-1.00
2023-03-03T22:01:49.265Z,-1.10
2023-03-03T22:06:59.746Z,-1.20
2023-03-03T22:12:07.775Z,-1.20
2023-03-03T22:17:11.459Z,-1.20
2023-03-03T22:22:14.811Z,-1.20
2023-03-03T22:27:20.849Z,-1.30
2023-03-03T22:32:24.198Z,-1.30
2023-03-03T22:37:27.562Z,-1.40
2023-03-03T22:42:32.195Z,-1.30
2023-03-03T22:47:35.543Z,-1.30
2023-03-03T22:52:38.891Z,-1.30
2023-03-03T22:57:43.587Z,-1.40
2023-03-03T23:02:47.033Z,-1.40
2023-03-03T23:07:50.486Z,-1.50
2023-03-03T23:12:55.272Z,-1.60
2023-03-03T23:17:58.666Z,-1.50
2023-03-03T23:23:02.191Z,-1.60
2023-03-03T23:28:07.652Z,-1.70
2023-03-03T23:33:10.930Z,-1.70
2023-03-03T23:38:17.798Z,-1.80
2023-03-03T23:43:23.471Z,-1.70
2023-03-03T23:48:26.803Z,-1.70
2023-03-03T23:53:30.094Z,-1.80
2023-03-03T23:58:34.872Z,-2.00
